Time;durP1;ratioP1;P1;durP2;ratioP2;P2;SDS_P1;SDS_P2;PMS_P1;PMS_P2;Temp;Humidity;BMP_temperature;BMP_pressure;BME280_temperature;BME280_humidity;BME280_pressure;Samples;Min_cycle;Max_cycle;Signal;HPM_P1;HPM_P2
2021/12/16 00:04:30;;;;;;;44.20;22.00;;;;;;;1.85;79.32;102375.44;1666459;84;25875;-58
2021/12/16 00:08:55;;;;;;;38.88;22.05;;;;;;;1.82;79.56;102376.84;1666949;84;25904;-59
2021/12/16 00:20:03;;;;;;;41.75;21.05;;;;;;;1.84;79.92;102389.15;1657346;83;27490;-59
2021/12/16 00:30:44;;;;;;;37.60;20.68;;;;;;;1.86;79.95;102387.33;1665851;85;25829;-60
2021/12/16 00:32:52;;;;;;;43.80;21.17;;;;;;;1.90;79.92;102391.25;1667080;84;27581;-59
2021/12/16 00:35:16;;;;;;;41.28;19.87;;;;;;;1.94;79.96;102387.58;1672117;84;25870;-59
2021/12/16 00:37:45;;;;;;;39.65;22.05;;;;;;;1.96;80.01;102391.08;1664173;85;25677;-58
2021/12/16 00:40:14;;;;;;;43.55;21.70;;;;;;;1.99;80.00;102391.86;1667348;85;25800;-58
2021/12/16 00:42:50;;;;;;;45.17;21.62;;;;;;;2.01;79.87;102387.86;1660427;86;25916;-58
2021/12/16 00:48:19;;;;;;;47.83;22.75;;;;;;;2.08;79.79;102388.11;1655323;84;26138;-59
2021/12/16 00:55:54;;;;;;;41.40;22.42;;;;;;;2.11;79.61;102391.98;1616831;86;25813;-59
2021/12/16 00:58:40;;;;;;;46.40;23.15;;;;;;;2.12;79.69;102384.44;1651848;85;27400;-59
2021/12/16 01:01:17;;;;;;;42.78;22.67;;;;;;;2.13;79.82;102384.86;1655518;85;25827;-59
2021/12/16 01:03:56;;;;;;;43.68;21.62;;;;;;;2.13;79.68;102384.00;1651817;83;25572;-58
2021/12/16 01:34:38;;;;;;;49.10;22.42;;;;;;;2.13;79.82;102354.33;1654113;86;26506;-59
2021/12/16 01:37:29;;;;;;;39.67;21.95;;;;;;;2.10;79.72;102354.87;1653666;85;25863;-59
2021/12/16 01:50:07;;;;;;;49.23;23.05;;;;;;;2.12;79.86;102349.06;1619457;87;25854;-59
2021/12/16 01:55:38;;;;;;;48.48;22.65;;;;;;;2.08;79.84;102347.39;1648238;85;27290;-59
2021/12/16 01:58:13;;;;;;;49.20;22.32;;;;;;;2.06;79.89;102347.92;1646223;85;25871;-59
2021/12/16 02:01:15;;;;;;;41.40;21.37;;;;;;;2.07;79.98;102346.54;1643037;84;26487;-59
2021/12/16 02:03:46;;;;;;;44.42;22.22;;;;;;;2.05;79.90;102343.52;1638900;85;25886;-59
2021/12/16 02:09:18;;;;;;;42.95;22.67;;;;;;;2.04;80.02;102335.99;1633172;84;25862;-59
2021/12/16 02:36:22;;;;;;;44.18;22.15;;;;;;;2.08;79.84;102329.70;1629862;87;25683;-58
2021/12/16 02:38:46;;;;;;;47.03;23.90;;;;;;;2.11;79.93;102338.89;1643619;86;25774;-59
2021/12/16 02:41:16;;;;;;;50.90;24.12;;;;;;;2.10;79.90;102341.16;1627787;86;25772;-59
2021/12/16 02:44:08;;;;;;;48.02;23.70;;;;;;;2.11;79.88;102337.56;1630759;85;25909;-59
2021/12/16 02:49:06;;;;;;;46.65;22.52;;;;;;;2.10;79.92;102334.52;1619919;86;25882;-59
2021/12/16 02:51:33;;;;;;;42.85;21.27;;;;;;;2.12;79.93;102335.32;1644474;85;25934;-59
2021/12/16 02:54:05;;;;;;;46.05;24.57;;;;;;;2.12;79.98;102330.48;1644236;85;25741;-59
2021/12/16 02:56:35;;;;;;;45.95;23.07;;;;;;;2.14;79.93;102333.50;1637691;85;25919;-59
2021/12/16 02:59:02;;;;;;;41.83;22.70;;;;;;;2.14;79.84;102337.95;1623362;86;27497;-59
2021/12/16 03:01:34;;;;;;;45.17;22.93;;;;;;;2.16;79.89;102329.47;1624116;87;26065;-58
2021/12/16 03:04:06;;;;;;;42.43;22.70;;;;;;;2.12;80.10;102330.01;1637659;85;25713;-59
2021/12/16 03:06:34;;;;;;;45.20;23.22;;;;;;;2.12;80.10;102330.01;1608318;88;25863;-59
2021/12/16 03:09:06;;;;;;;39.95;22.48;;;;;;;2.17;79.75;102341.39;1661005;85;25875;-59
2021/12/16 03:11:44;;;;;;;44.95;24.00;;;;;;;2.17;79.86;102337.41;1658171;83;27562;-59
2021/12/16 03:19:45;;;;;;;47.67;24.80;;;;;;;2.16;79.87;102342.30;1655210;85;27038;-58
2021/12/16 03:22:02;;;;;;;51.85;26.00;;;;;;;2.18;79.98;102339.16;1639928;85;25813;-59
2021/12/16 03:38:02;;;;;;;50.60;24.82;;;;;;;2.18;80.03;102351.55;1636682;85;27504;-60
2021/12/16 03:40:32;;;;;;;53.87;24.65;;;;;;;2.18;80.18;102349.78;1640237;86;25919;-60
2021/12/16 03:43:10;;;;;;;48.20;24.07;;;;;;;2.17;80.17;102352.45;1652366;85;25819;-60
2021/12/16 03:48:54;;;;;;;48.48;25.55;;;;;;;2.16;80.28;102348.94;1640404;86;25811;-60
2021/12/16 03:51:40;;;;;;;54.98;25.62;;;;;;;2.17;80.43;102349.80;1643459;86;27877;-60
2021/12/16 03:54:24;;;;;;;53.87;25.40;;;;;;;2.17;80.55;102348.47;1652345;85;35016;-59
2021/12/16 03:56:56;;;;;;;48.92;25.10;;;;;;;2.13;80.62;102341.05;1657543;84;25909;-59
2021/12/16 03:59:27;;;;;;;50.52;25.02;;;;;;;2.14;80.69;102345.92;1663623;84;26433;-59
2021/12/16 04:02:00;;;;;;;49.55;24.63;;;;;;;2.14;80.78;102342.80;1657353;84;25839;-59
2021/12/16 04:04:30;;;;;;;52.67;24.55;;;;;;;2.14;80.93;102342.80;1637834;86;33020;-59
2021/12/16 04:06:58;;;;;;;53.52;25.15;;;;;;;2.18;81.16;102336.94;1620878;86;25753;-59
2021/12/16 04:09:26;;;;;;;48.50;23.73;;;;;;;2.11;80.95;102344.20;1638424;86;25466;-59
2021/12/16 04:12:08;;;;;;;51.73;24.85;;;;;;;2.11;81.15;102338.89;1640489;86;53389;-58
2021/12/16 04:14:31;;;;;;;54.03;25.97;;;;;;;2.09;81.23;102340.73;1638969;84;25924;-59
2021/12/16 04:17:03;;;;;;;52.58;25.23;;;;;;;2.07;81.35;102335.03;1639289;86;27682;-58
2021/12/16 04:19:36;;;;;;;51.02;24.18;;;;;;;2.06;81.37;102337.30;1630213;87;25954;-58
2021/12/16 04:22:30;;;;;;;52.33;25.15;;;;;;;2.06;81.43;102332.84;1638385;86;25756;-58
2021/12/16 04:25:02;;;;;;;53.13;25.70;;;;;;;2.10;81.67;102338.50;1641392;87;26013;-58
2021/12/16 04:27:33;;;;;;;49.58;25.20;;;;;;;2.07;81.62;102337.69;1655693;85;26163;-59
2021/12/16 04:30:01;;;;;;;49.30;24.55;;;;;;;2.09;81.75;102342.50;1663088;85;27488;-58
2021/12/16 04:32:27;;;;;;;51.35;23.95;;;;;;;2.12;81.78;102338.45;1658344;84;25963;-59
2021/12/16 04:34:55;;;;;;;72.22;34.73;;;;;;;2.15;81.81;102341.03;1663154;84;25792;-59
2021/12/16 04:37:23;;;;;;;45.92;24.00;;;;;;;2.15;81.66;102342.36;1663716;85;25881;-59
2021/12/16 04:39:50;;;;;;;44.05;24.47;;;;;;;2.16;81.57;102338.32;1663260;84;26149;-59
2021/12/16 04:42:24;;;;;;;48.68;23.12;;;;;;;2.15;81.60;102340.55;1629517;85;27554;-58
2021/12/16 04:44:49;;;;;;;45.30;23.25;;;;;;;2.16;81.48;102338.76;1633947;86;25867;-59
2021/12/16 04:47:18;;;;;;;44.00;22.75;;;;;;;2.17;81.50;102344.05;1640775;86;25767;-59
2021/12/16 04:49:46;;;;;;;43.10;21.60;;;;;;;2.17;81.42;102344.05;1636265;86;26444;-59
2021/12/16 04:52:17;;;;;;;39.90;20.32;;;;;;;2.17;81.40;102340.06;1635126;86;25869;-59
2021/12/16 04:54:46;;;;;;;39.15;18.70;;;;;;;2.19;81.38;102336.03;1641859;86;27487;-58
2021/12/16 04:57:15;;;;;;;40.55;21.37;;;;;;;2.22;81.40;102332.41;1637000;85;25783;-58
2021/12/16 04:59:44;;;;;;;41.45;21.07;;;;;;;2.23;81.35;102332.83;1639180;85;25867;-58
2021/12/16 05:02:19;;;;;;;40.88;19.07;;;;;;;2.21;81.18;102335.97;1654375;84;25780;-58
2021/12/16 05:04:53;;;;;;;34.60;18.30;;;;;;;2.18;81.31;102325.88;1620276;85;25807;-59
2021/12/16 05:07:23;;;;;;;33.58;17.27;;;;;;;2.18;81.23;102331.63;1660846;85;27565;-59
2021/12/16 05:10:05;;;;;;;36.75;17.25;;;;;;;2.16;81.16;102326.81;1646906;84;26220;-58
2021/12/16 05:12:36;;;;;;;33.48;16.57;;;;;;;2.18;81.27;102323.22;1658857;85;26543;-58
2021/12/16 05:15:06;;;;;;;35.08;17.02;;;;;;;2.15;81.10;102318.46;1658936;84;25935;-58
2021/12/16 05:17:43;;;;;;;36.55;17.12;;;;;;;2.16;81.15;102314.86;1663448;84;25670;-59
2021/12/16 05:20:15;;;;;;;37.05;17.25;;;;;;;2.16;81.14;102315.75;1661723;85;27566;-59
2021/12/16 05:25:50;;;;;;;41.20;20.52;;;;;;;2.12;81.24;102310.57;1657503;85;25712;-59
2021/12/16 05:28:07;;;;;;;36.75;19.67;;;;;;;2.11;81.25;102312.34;1648484;84;25759;-59
2021/12/16 05:30:34;;;;;;;39.18;19.17;;;;;;;2.11;81.30;102315.47;1679976;84;25781;-60
2021/12/16 05:33:01;;;;;;;35.98;18.40;;;;;;;2.06;81.20;102313.41;1681792;84;27472;-59
2021/12/16 05:35:30;;;;;;;40.08;21.57;;;;;;;2.08;81.12;102309.80;1633710;85;25821;-59
2021/12/16 05:37:57;;;;;;;36.88;20.17;;;;;;;2.09;81.24;102317.28;1669580;84;25863;-59
2021/12/16 05:40:28;;;;;;;41.18;20.02;;;;;;;2.04;81.30;102314.76;1665291;84;26481;-59
2021/12/16 05:43:16;;;;;;;36.68;19.50;;;;;;;2.01;81.36;102311.73;1651817;85;25875;-59
2021/12/16 05:45:45;;;;;;;40.75;22.07;;;;;;;2.02;81.54;102313.48;1641309;85;27479;-59
2021/12/16 05:48:17;;;;;;;43.28;22.90;;;;;;;2.01;81.53;102314.86;1605848;86;26634;-59
2021/12/16 05:50:49;;;;;;;41.60;22.00;;;;;;;2.05;81.58;102318.30;1619340;85;25959;-59
2021/12/16 05:53:18;;;;;;;39.55;22.15;;;;;;;2.05;81.67;102318.30;1669783;84;26241;-59
2021/12/16 05:55:47;;;;;;;39.10;21.45;;;;;;;2.01;81.55;102318.84;1638006;86;25988;-59
2021/12/16 05:58:20;;;;;;;35.60;21.12;;;;;;;2.02;81.67;102313.48;1658718;84;26836;-59
2021/12/16 06:00:52;;;;;;;40.58;22.13;;;;;;;2.03;81.83;102312.58;1633521;85;25879;-59
2021/12/16 06:03:21;;;;;;;35.50;18.55;;;;;;;2.07;81.73;102319.99;1640573;85;25809;-59
2021/12/16 06:05:52;;;;;;;36.28;19.42;;;;;;;2.13;81.73;102321.61;1676118;84;25864;-59
2021/12/16 06:08:20;;;;;;;47.73;19.90;;;;;;;2.14;81.61;102325.53;1682082;84;25844;-59
2021/12/16 06:13:42;;;;;;;38.58;18.65;;;;;;;2.12;81.46;102335.79;1683412;84;25562;-59
2021/12/16 06:27:23;;;;;;;29.85;16.40;;;;;;;2.08;81.69;102347.39;1651223;85;25734;-59
2021/12/16 06:29:50;;;;;;;34.03;16.75;;;;;;;2.12;81.42;102354.38;1638063;86;25916;-58
2021/12/16 06:32:18;;;;;;;29.67;14.85;;;;;;;2.14;81.41;102354.74;1661127;85;26178;-59
2021/12/16 06:34:46;;;;;;;32.60;17.52;;;;;;;2.17;81.22;102350.69;1667197;84;25781;-59
2021/12/16 06:37:14;;;;;;;28.00;15.53;;;;;;;2.20;81.09;102353.70;1670207;85;27485;-59
2021/12/16 06:39:42;;;;;;;34.40;16.67;;;;;;;2.24;80.86;102355.34;1656069;86;25668;-59
2021/12/16 06:42:13;;;;;;;29.80;16.52;;;;;;;2.22;80.46;102351.88;1613736;86;26001;-59
2021/12/16 06:44:56;;;;;;;52.00;15.43;;;;;;;2.22;80.29;102347.02;1670580;85;26649;-59
2021/12/16 06:47:28;;;;;;;29.57;15.25;;;;;;;2.19;80.16;102347.98;1658803;85;26166;-60
2021/12/16 06:49:52;;;;;;;24.30;14.73;;;;;;;2.21;80.06;102350.14;1656970;85;27422;-59
2021/12/16 06:52:23;;;;;;;30.70;15.90;;;;;;;2.22;79.92;102351.88;1623019;85;25738;-59
2021/12/16 06:55:05;;;;;;;31.15;14.95;;;;;;;2.19;79.74;102350.62;1617510;87;25902;-59
2021/12/16 07:00:10;;;;;;;26.15;15.00;;;;;;;2.17;79.72;102358.65;1649038;85;25974;-59
2021/12/16 07:05:06;;;;;;;29.57;14.55;;;;;;;2.22;79.57;102370.91;1665998;85;27242;-60
2021/12/16 07:07:35;;;;;;;37.48;21.35;;;;;;;2.22;79.07;102374.89;1623365;86;26809;-60
2021/12/16 07:10:07;;;;;;;31.85;15.85;;;;;;;2.25;79.21;102376.14;1664361;84;25885;-60
2021/12/16 07:12:36;;;;;;;29.18;14.30;;;;;;;2.26;79.01;102381.88;1639199;85;25837;-59
2021/12/16 07:15:14;;;;;;;27.40;15.05;;;;;;;2.27;78.77;102374.33;1613702;87;28306;-59
2021/12/16 07:17:42;;;;;;;34.63;17.75;;;;;;;2.28;78.57;102368.96;1660346;84;25801;-60
2021/12/16 07:20:17;;;;;;;41.25;18.70;;;;;;;2.25;78.30;102359.74;1642851;84;25768;-59
2021/12/16 07:22:45;;;;;;;31.07;17.98;;;;;;;2.25;78.12;102365.52;1660816;83;25803;-59
2021/12/16 07:25:14;;;;;;;28.77;15.58;;;;;;;2.27;78.19;102362.37;1630813;87;25749;-59
2021/12/16 07:27:41;;;;;;;25.65;15.00;;;;;;;2.27;77.93;102365.89;1636552;84;28167;-59
2021/12/16 07:30:13;;;;;;;30.43;15.20;;;;;;;2.24;77.67;102358.00;1640770;86;25814;-59
2021/12/16 07:32:41;;;;;;;21.65;14.07;;;;;;;2.27;77.74;102360.58;1640067;86;25922;-60
2021/12/16 07:35:13;;;;;;;29.72;13.50;;;;;;;2.33;77.66;102356.88;1642477;85;25828;-60
2021/12/16 07:37:41;;;;;;;25.23;14.45;;;;;;;2.37;77.47;102355.89;1660156;85;26408;-60
2021/12/16 07:40:11;;;;;;;26.33;13.93;;;;;;;2.45;77.56;102354.33;1647518;85;28190;-60
2021/12/16 07:42:48;;;;;;;23.18;13.43;;;;;;;2.49;76.84;102356.84;1645406;86;25488;-59
2021/12/16 07:45:17;;;;;;;23.80;12.68;;;;;;;2.54;77.03;102351.87;1651681;84;25834;-60
2021/12/16 07:47:46;;;;;;;24.15;13.65;;;;;;;2.61;77.00;102352.09;1690047;84;25776;-60
2021/12/16 07:50:15;;;;;;;26.80;14.03;;;;;;;2.63;76.09;102355.11;1684430;84;25865;-59
2021/12/16 07:52:42;;;;;;;21.55;12.00;;;;;;;2.62;75.92;102349.86;1688304;84;27464;-59
2021/12/16 07:55:13;;;;;;;24.05;12.85;;;;;;;2.66;75.63;102346.17;1672651;84;25831;-59
2021/12/16 07:57:42;;;;;;;22.22;11.18;;;;;;;2.70;75.18;102348.28;1647192;85;25971;-59
2021/12/16 08:00:20;;;;;;;25.52;11.78;;;;;;;2.70;74.72;102348.28;1655195;85;25813;-59
2021/12/16 08:02:48;;;;;;;19.25;12.37;;;;;;;2.70;74.66;102353.59;1658250;85;25958;-59
2021/12/16 08:05:17;;;;;;;26.55;13.60;;;;;;;2.73;74.70;102351.74;1661833;85;27501;-59
2021/12/16 08:07:44;;;;;;;21.20;12.88;;;;;;;2.74;74.06;102351.27;1659839;84;25758;-59
2021/12/16 08:10:16;;;;;;;23.90;12.60;;;;;;;2.75;74.07;102356.53;1663059;84;25756;-59
2021/12/16 08:12:43;;;;;;;19.55;10.78;;;;;;;2.75;73.38;102359.19;1660173;85;26556;-59
2021/12/16 08:15:14;;;;;;;20.10;10.53;;;;;;;2.74;73.16;102345.48;1658027;85;25728;-59
2021/12/16 08:17:43;;;;;;;22.37;10.95;;;;;;;2.77;73.65;102354.70;1656848;86;28210;-59
2021/12/16 08:20:18;;;;;;;21.40;11.12;;;;;;;2.79;73.24;102350.22;1658340;86;26131;-59
2021/12/16 08:22:49;;;;;;;20.57;11.57;;;;;;;2.89;73.85;102353.92;1641963;85;26535;-59
2021/12/16 08:25:19;;;;;;;18.98;9.90;;;;;;;2.95;73.38;102356.38;1642812;85;25860;-59
2021/12/16 08:27:48;;;;;;;14.25;8.40;;;;;;;3.00;72.79;102359.78;1642261;85;25937;-59
2021/12/16 08:30:22;;;;;;;14.90;8.95;;;;;;;3.05;72.57;102358.31;1649374;86;27492;-59
2021/12/16 08:32:50;;;;;;;15.30;8.43;;;;;;;3.15;72.35;102361.06;1650939;86;35004;-59
2021/12/16 08:35:19;;;;;;;14.85;9.13;;;;;;;3.19;71.20;102364.49;1651484;84;26348;-59
2021/12/16 08:37:46;;;;;;;13.93;7.83;;;;;;;3.18;71.53;102371.61;1610733;87;26754;-59
2021/12/16 08:40:18;;;;;;;13.68;8.30;;;;;;;3.17;70.83;102369.02;1637331;87;25689;-59
2021/12/16 08:42:46;;;;;;;19.23;8.88;;;;;;;3.14;70.26;102364.64;1646160;84;27482;-59
2021/12/16 08:45:21;;;;;;;16.40;9.00;;;;;;;3.11;71.05;102364.28;1678670;84;25955;-59
2021/12/16 08:47:49;;;;;;;14.63;8.38;;;;;;;3.10;70.24;102355.89;1681036;84;26090;-60
2021/12/16 08:50:20;;;;;;;13.93;7.78;;;;;;;3.13;70.28;102353.14;1634950;86;25820;-59
2021/12/16 08:52:48;;;;;;;19.40;8.60;;;;;;;3.13;69.97;102355.80;1672429;84;26383;-59
2021/12/16 08:55:17;;;;;;;15.55;8.70;;;;;;;3.17;70.31;102347.73;1673010;84;27500;-59
2021/12/16 08:57:45;;;;;;;12.68;7.10;;;;;;;3.19;70.56;102347.20;1684910;84;25817;-59
2021/12/16 09:00:20;;;;;;;15.20;7.05;;;;;;;3.18;70.60;102341.03;1680547;84;25832;-59
2021/12/16 09:02:47;;;;;;;15.90;8.08;;;;;;;3.19;70.36;102341.89;1675357;84;25863;-59
2021/12/16 09:05:14;;;;;;;15.88;7.35;;;;;;;3.18;69.72;102333.05;1679719;84;25790;-59
2021/12/16 09:07:46;;;;;;;12.58;7.65;;;;;;;3.21;70.21;102324.09;1678831;84;27505;-59
2021/12/16 09:10:14;;;;;;;13.20;7.22;;;;;;;3.21;69.48;102317.45;1682256;83;25959;-59
2021/12/16 09:12:52;;;;;;;12.78;6.87;;;;;;;3.23;70.02;102305.83;1666030;84;25812;-59
2021/12/16 09:15:18;;;;;;;12.00;7.80;;;;;;;3.29;69.23;102308.75;1673124;83;26304;-59
2021/12/16 09:17:45;;;;;;;14.07;7.47;;;;;;;3.32;69.32;102309.99;1673970;84;25746;-59
2021/12/16 09:20:13;;;;;;;14.28;7.33;;;;;;;3.32;69.46;102313.98;1635357;85;27492;-59
2021/12/16 09:22:40;;;;;;;11.50;7.33;;;;;;;3.37;69.27;102307.18;1629350;87;25806;-59
2021/12/16 09:25:08;;;;;;;14.93;7.87;;;;;;;3.39;69.06;102311.99;1606296;86;25797;-59
2021/12/16 09:27:43;;;;;;;12.90;7.42;;;;;;;3.39;69.01;102314.18;1623154;85;25833;-59
2021/12/16 09:30:18;;;;;;;16.80;7.58;;;;;;;3.41;68.40;102307.47;1677560;84;25793;-59
2021/12/16 09:32:46;;;;;;;12.70;7.45;;;;;;;3.35;67.22;102307.23;1661371;85;27481;-59
2021/12/16 09:35:13;;;;;;;15.45;7.62;;;;;;;3.35;67.34;102303.69;1665587;84;25758;-59
2021/12/16 09:37:42;;;;;;;17.02;7.72;;;;;;;3.37;67.75;102308.51;1670493;84;25789;-59
2021/12/16 09:40:17;;;;;;;11.50;7.53;;;;;;;3.36;67.39;102300.97;1648819;85;26527;-59
2021/12/16 09:42:44;;;;;;;11.73;6.75;;;;;;;3.37;67.30;102300.05;1635495;86;26343;-59
2021/12/16 09:45:13;;;;;;;12.53;6.15;;;;;;;3.38;66.42;102301.80;1652413;84;29679;-59
2021/12/16 09:47:40;;;;;;;11.53;6.45;;;;;;;3.48;64.84;102294.83;1666457;83;25883;-59
2021/12/16 09:50:12;;;;;;;12.15;6.65;;;;;;;3.51;65.52;102294.27;1639425;85;25791;-59
2021/12/16 09:52:39;;;;;;;13.40;7.40;;;;;;;3.59;65.09;102292.20;1638553;85;25828;-59
2021/12/16 09:55:08;;;;;;;15.75;7.33;;;;;;;3.63;64.60;102282.80;1640237;86;25829;-59
2021/12/16 09:57:36;;;;;;;14.20;7.80;;;;;;;3.63;64.96;102277.47;1607779;88;28199;-59
2021/12/16 10:00:09;;;;;;;16.25;8.43;;;;;;;3.60;64.78;102275.79;1627854;85;25777;-59
2021/12/16 10:02:40;;;;;;;16.42;8.50;;;;;;;3.55;65.87;102275.95;1612432;87;25874;-59
2021/12/16 10:05:09;;;;;;;20.30;8.85;;;;;;;3.57;66.56;102269.23;1627982;84;25816;-59
2021/12/16 10:07:36;;;;;;;15.08;8.45;;;;;;;3.63;65.66;102265.49;1660350;85;25789;-59
2021/12/16 10:10:12;;;;;;;17.40;9.50;;;;;;;3.62;66.62;102267.74;1659979;85;27549;-59
2021/12/16 10:12:42;;;;;;;16.42;8.58;;;;;;;3.64;65.78;102262.77;1658083;85;25888;-58
2021/12/16 10:18:14;;;;;;;19.87;10.50;;;;;;;3.53;65.87;102261.83;1659554;84;25821;-59
2021/12/16 10:20:46;;;;;;;21.62;9.68;;;;;;;3.51;66.44;102269.46;1618139;86;25851;-59
2021/12/16 10:23:18;;;;;;;12.98;8.43;;;;;;;3.50;66.15;102258.41;1654123;84;27467;-59
2021/12/16 10:25:59;;;;;;;17.07;8.53;;;;;;;3.50;66.03;102251.75;1656001;84;25954;-59
2021/12/16 10:28:31;;;;;;;14.70;7.72;;;;;;;3.50;66.32;102261.06;1641278;86;25978;-58
2021/12/16 10:31:12;;;;;;;17.20;9.18;;;;;;;3.53;66.25;102258.31;1633298;86;25839;-58
2021/12/16 10:33:50;;;;;;;17.92;9.08;;;;;;;3.48;66.49;102252.27;1659463;84;26122;-58
2021/12/16 10:36:40;;;;;;;24.55;8.33;;;;;;;3.50;67.32;102250.42;1663748;84;27505;-59
2021/12/16 10:39:25;;;;;;;16.55;7.62;;;;;;;3.55;67.68;102243.13;1658613;85;25932;-59
2021/12/16 10:41:57;;;;;;;13.32;7.20;;;;;;;3.59;67.58;102234.98;1661339;85;25811;-59
2021/12/16 10:44:30;;;;;;;14.38;7.70;;;;;;;3.61;67.31;102238.95;1614544;88;26492;-58
2021/12/16 10:47:02;;;;;;;13.40;7.17;;;;;;;3.65;66.86;102233.05;1614246;87;25816;-59
2021/12/16 10:49:49;;;;;;;12.70;7.60;;;;;;;3.68;66.93;102223.16;1619250;85;27537;-60
2021/12/16 10:52:26;;;;;;;12.43;7.40;;;;;;;3.68;67.16;102228.48;1654734;84;26002;-58
2021/12/16 10:54:52;;;;;;;18.77;7.42;;;;;;;3.72;67.52;102230.56;1654843;85;25767;-58
2021/12/16 10:57:25;;;;;;;13.78;7.05;;;;;;;3.72;67.14;102222.58;1669857;85;26508;-59
2021/12/16 11:00:03;;;;;;;13.83;7.87;;;;;;;3.73;66.59;102219.85;1656388;85;26056;-58
2021/12/16 11:02:35;;;;;;;15.00;7.83;;;;;;;3.70;67.29;102215.99;1673535;83;27528;-57
2021/12/16 11:05:21;;;;;;;14.78;7.60;;;;;;;3.72;67.44;102220.77;1661434;84;26379;-57
2021/12/16 11:07:54;;;;;;;13.20;8.15;;;;;;;3.72;67.26;102219.92;1651066;85;25715;-59
2021/12/16 11:10:27;;;;;;;17.60;7.73;;;;;;;3.71;67.54;102217.73;1672301;85;26881;-59
2021/12/16 11:13:02;;;;;;;14.05;7.10;;;;;;;3.70;67.68;102201.35;1662190;83;25791;-60
2021/12/16 11:15:43;;;;;;;14.85;7.70;;;;;;;3.72;67.59;102210.60;1644935;84;27487;-60
2021/12/16 11:18:23;;;;;;;18.82;7.95;;;;;;;3.75;67.23;102207.84;1660966;86;25791;-60
2021/12/16 11:20:58;;;;;;;14.73;7.28;;;;;;;3.76;67.64;102203.78;1660559;85;26471;-60
2021/12/16 11:23:37;;;;;;;11.22;6.78;;;;;;;3.73;67.64;102204.36;1664395;85;26556;-60
2021/12/16 11:26:19;;;;;;;14.93;6.97;;;;;;;3.70;67.71;102206.68;1663350;84;25797;-60
2021/12/16 11:28:52;;;;;;;12.03;7.62;;;;;;;3.70;67.14;102197.36;1663805;85;28207;-59
2021/12/16 11:31:27;;;;;;;12.23;6.73;;;;;;;3.72;67.49;102196.81;1662286;85;25499;-60
2021/12/16 11:34:02;;;;;;;12.53;7.08;;;;;;;3.73;67.96;102198.56;1659736;85;25746;-61
2021/12/16 11:36:37;;;;;;;14.98;7.35;;;;;;;3.79;68.23;102196.14;1658298;85;25847;-61
2021/12/16 11:39:10;;;;;;;13.00;7.03;;;;;;;3.86;68.52;102200.30;1660313;85;25900;-61
2021/12/16 11:41:48;;;;;;;12.73;6.95;;;;;;;3.96;68.58;102199.95;1662906;84;28182;-61
2021/12/16 11:44:24;;;;;;;11.10;6.50;;;;;;;4.01;68.01;102195.34;1666429;85;25942;-60
2021/12/16 11:46:57;;;;;;;16.27;7.40;;;;;;;3.99;67.21;102191.38;1657870;85;25504;-60
2021/12/16 11:49:35;;;;;;;16.70;7.20;;;;;;;4.01;68.02;102187.35;1659207;84;25884;-60
2021/12/16 11:52:13;;;;;;;13.20;7.30;;;;;;;4.11;68.13;102186.52;1655417;84;25722;-60
2021/12/16 11:54:59;;;;;;;13.58;7.35;;;;;;;4.14;68.13;102185.94;1652692;85;27534;-60
2021/12/16 11:57:43;;;;;;;13.58;7.33;;;;;;;4.19;67.98;102188.42;1615753;87;25974;-60
2021/12/16 12:00:21;;;;;;;11.97;6.83;;;;;;;4.16;67.16;102189.41;1657713;84;25788;-60
2021/12/16 12:02:55;;;;;;;12.10;7.35;;;;;;;4.17;67.57;102182.31;1667071;84;25892;-61
2021/12/16 12:05:34;;;;;;;14.95;8.63;;;;;;;4.23;67.73;102175.41;1658473;84;25713;-61
2021/12/16 12:08:11;;;;;;;19.52;9.10;;;;;;;4.20;66.29;102171.52;1646228;86;27554;-60
2021/12/16 12:10:53;;;;;;;21.80;9.38;;;;;;;4.10;66.53;102175.02;1637506;85;25891;-60
2021/12/16 12:13:31;;;;;;;17.20;9.75;;;;;;;4.05;66.56;102167.20;1659451;84;26482;-60
2021/12/16 12:16:07;;;;;;;26.45;11.50;;;;;;;4.04;66.81;102168.58;1628456;86;26506;-60
2021/12/16 12:18:54;;;;;;;25.02;11.85;;;;;;;4.01;66.62;102160.24;1660095;85;25959;-60
2021/12/16 12:21:42;;;;;;;39.67;13.50;;;;;;;3.95;66.94;102156.50;1657598;86;27479;-61
2021/12/16 12:24:26;;;;;;;36.25;15.60;;;;;;;3.90;67.10;102156.67;1655792;85;25739;-61
2021/12/16 12:26:58;;;;;;;26.10;15.25;;;;;;;3.84;67.05;102151.59;1657964;84;25836;-61
2021/12/16 12:29:32;;;;;;;29.63;14.47;;;;;;;3.74;67.26;102148.39;1638864;86;25784;-61
2021/12/16 12:32:10;;;;;;;25.45;14.60;;;;;;;3.70;67.76;102149.45;1638587;84;25794;-60
2021/12/16 12:34:42;;;;;;;40.95;16.57;;;;;;;3.71;68.02;102142.33;1633858;87;27524;-60
2021/12/16 12:37:12;;;;;;;34.00;14.43;;;;;;;3.72;68.22;102140.07;1641883;87;25813;-59
2021/12/16 12:39:47;;;;;;;28.27;14.73;;;;;;;3.68;68.56;102141.98;1654576;86;25499;-59
2021/12/16 12:42:17;;;;;;;22.80;12.63;;;;;;;3.69;68.76;102138.40;1651224;84;25794;-59
2021/12/16 12:44:45;;;;;;;21.50;12.03;;;;;;;3.76;69.00;102140.38;1634624;85;25855;-58
2021/12/16 12:47:17;;;;;;;24.15;13.72;;;;;;;3.80;69.04;102142.45;1634961;86;27481;-58
2021/12/16 12:49:46;;;;;;;27.13;13.32;;;;;;;3.82;69.07;102140.58;1649648;85;25944;-59
2021/12/16 12:52:19;;;;;;;26.00;14.75;;;;;;;3.83;69.26;102142.31;1663088;85;25828;-59
2021/12/16 12:55:03;;;;;;;25.27;13.28;;;;;;;3.85;69.37;102134.70;1631798;84;25935;-59
2021/12/16 12:57:33;;;;;;;;;;;;;;;3.88;69.49;102133.70;1643916;86;25957;-59
2021/12/16 13:00:03;;;;;;;23.92;13.18;;;;;;;3.85;69.38;102128.05;1657346;85;27453;-59
2021/12/16 13:02:35;;;;;;;31.27;15.20;;;;;;;3.81;69.58;102123.75;1662164;85;25844;-59
2021/12/16 13:05:07;;;;;;;38.25;17.02;;;;;;;3.78;69.58;102124.33;1641316;86;25840;-60
2021/12/16 13:07:45;;;;;;;30.55;15.30;;;;;;;3.76;69.85;102117.75;1644594;84;25887;-59
2021/12/16 13:10:20;;;;;;;29.27;15.93;;;;;;;3.73;69.85;102120.04;1663338;85;25742;-60
2021/12/16 13:13:00;;;;;;;29.70;15.68;;;;;;;3.66;70.12;102121.20;1657583;84;27564;-60
2021/12/16 13:24:01;;;;;;;33.58;18.30;;;;;;;3.54;70.99;102121.69;1646981;85;25705;-60
2021/12/16 13:29:35;;;;;;;34.15;16.48;;;;;;;3.54;71.01;102116.37;1677963;84;25753;-60
2021/12/16 13:32:38;;;;;;;32.13;15.40;;;;;;;3.53;71.06;102120.80;1671100;84;25870;-60
2021/12/16 13:35:10;;;;;;;25.25;15.15;;;;;;;3.53;71.18;102118.14;1665076;84;25893;-60
2021/12/16 13:37:40;;;;;;;35.43;16.55;;;;;;;3.55;71.32;102120.73;1645294;85;25831;-60
2021/12/16 13:40:16;;;;;;;29.10;14.73;;;;;;;3.57;71.37;102108.25;1652080;85;27505;-60
2021/12/16 13:43:13;;;;;;;30.08;17.77;;;;;;;3.56;71.24;102115.38;1642052;85;25748;-60
2021/12/16 13:45:53;;;;;;;;;;;;;;;3.59;71.52;102117.05;1624764;86;25717;-61
2021/12/16 14:05:21;;;;;;;32.98;17.45;;;;;;;3.81;71.82;102102.94;1625604;86;25816;-62
2021/12/16 14:07:57;;;;;;;39.35;17.67;;;;;;;3.85;71.65;102097.43;1625810;87;26911;-61
2021/12/16 14:10:48;;;;;;;36.50;17.15;;;;;;;3.84;71.54;102087.70;1657855;85;25788;-61
2021/12/16 14:25:15;;;;;;;37.53;18.48;;;;;;;3.93;71.31;102070.48;1656877;84;25796;-61
2021/12/16 14:47:08;;;;;;;37.28;17.40;;;;;;;3.65;72.31;102035.64;1654569;84;25752;-62
2021/12/16 14:49:35;;;;;;;34.03;17.82;;;;;;;3.66;72.32;102039.18;1633033;85;27520;-62
2021/12/16 14:52:04;;;;;;;39.88;17.92;;;;;;;3.69;72.40;102039.92;1659720;84;25760;-62
2021/12/16 14:54:34;;;;;;;34.53;18.35;;;;;;;3.73;72.47;102042.00;1676456;84;25935;-61
2021/12/16 14:57:03;;;;;;;31.40;17.98;;;;;;;3.78;72.58;102036.49;1668777;84;25873;-62
2021/12/16 14:59:31;;;;;;;39.20;18.20;;;;;;;3.90;72.78;102045.30;1647296;85;25522;-62
2021/12/16 15:02:02;;;;;;;44.00;18.98;;;;;;;3.95;72.57;102044.67;1671260;84;27464;-61
2021/12/16 15:04:30;;;;;;;34.78;17.57;;;;;;;3.99;72.62;102040.94;1672989;85;25833;-62
2021/12/16 15:07:05;;;;;;;36.83;19.00;;;;;;;4.00;72.59;102037.83;1689393;84;25819;-62
2021/12/16 15:09:35;;;;;;;33.90;18.62;;;;;;;3.98;72.63;102043.67;1660764;84;27948;-62
2021/12/16 15:12:33;;;;;;;34.55;18.27;;;;;;;3.94;72.82;102040.27;1670859;84;25822;-61